LiveATC.Net - Listen to live air traffic control over the Internet!


ICAO: KTIW  IATA: TIW   Airport: Tacoma Narrows Airport
City: Tacoma   State/Province: Washington
Country: United States   Continent: North America
KTIW METAR Weather: KTIW 241453Z 19008KT 10SM OVC013 09/06 A3004 RMK AO2 SLP174 T00940061 53002
KTIW ADS-B Flight Tracking  (ADSBExchange)
KTIW Flight Activity (FlightAware)
KTIW Airport Info   (iFlightPlanner)
KTIW VFR Sectional Chart   (iFlightPlanner) 
KTIW IFR Low Altitude Chart   (iFlightPlanner) 
KTIW IFR High Altitude Chart   (iFlightPlanner) 

KTIW Tower
Feed Status: UP   Listeners: 0
Listen in your browser - HTML5 player (in browser, HTML5)
Click here to listen with your own player (launches your MP3 player)
Archive Access: KTIW Tower
FacilityFrequency
Tacoma Tower118.500

NOTICE

Unauthorized use prohibited. See LiveATC.net Terms of Service


Airport/ARTCC Code
Frequency Search
(e.g., 124.400, 128.75)
Site-wide search
 


Browse Feeds
Top 50 Feeds
HF Oceanic Feeds
Coverage Map
Bad Weather Areas

LiveATC FAQ

Increase Coverage

Contact LiveATC.net
Press Inquiries

LiveATC on iPhone
LiveATC on Android

LiveATC Mobile
(Mobile browser)

ATC Audio Archives
Interesting Recordings

LiveATC Forums


Home Page
About LiveATC.net


Terms of Use
Privacy Policy

AIRMETs/SIGMETs

FAA Airport Status
NAS Status
Arrival Demand


Server Software By:
Icecast.org
Liquidsoap